createdAt,value
2018-05-26T00:02:23.305Z,17.23
2018-05-26T00:04:52.183Z,18.10
2018-05-26T00:07:21.050Z,18.47
2018-05-26T00:09:49.910Z,16.57
2018-05-26T00:12:18.779Z,18.63
2018-05-26T00:14:47.694Z,17.83
2018-05-26T00:17:16.564Z,17.57
2018-05-26T00:19:45.448Z,17.57
2018-05-26T00:22:14.315Z,18.20
2018-05-26T00:24:43.187Z,18.53
2018-05-26T00:27:12.070Z,18.23
2018-05-26T00:29:40.947Z,18.77
2018-05-26T00:32:09.815Z,18.53
2018-05-26T00:34:38.999Z,18.90
2018-05-26T00:37:07.868Z,18.77
2018-05-26T00:39:36.746Z,18.80
2018-05-26T00:42:05.611Z,18.50
2018-05-26T00:44:34.475Z,19.13
2018-05-26T00:47:03.352Z,19.03
2018-05-26T00:49:32.255Z,19.57
2018-05-26T00:52:01.131Z,18.90
2018-05-26T00:54:30.027Z,19.33
2018-05-26T00:56:58.887Z,19.73
2018-05-26T00:59:27.782Z,19.83
2018-05-26T01:01:56.643Z,18.77
2018-05-26T01:04:25.807Z,19.47
2018-05-26T01:06:54.908Z,19.33
2018-05-26T01:09:23.779Z,19.57
2018-05-26T01:11:52.646Z,18.77
2018-05-26T01:14:21.507Z,19.90
2018-05-26T01:16:50.369Z,19.73
2018-05-26T01:19:19.231Z,19.03
2018-05-26T01:21:48.111Z,20.17
2018-05-26T01:24:16.975Z,19.67
2018-05-26T01:26:45.840Z,19.73
2018-05-26T01:29:14.715Z,20.27
2018-05-26T01:31:43.581Z,21.33
2018-05-26T01:34:12.459Z,23.23
2018-05-26T01:36:41.331Z,23.63
2018-05-26T01:39:10.424Z,22.57
2018-05-26T01:41:39.294Z,22.57
2018-05-26T01:44:08.394Z,22.33
2018-05-26T01:46:37.260Z,21.27
2018-05-26T01:49:06.136Z,23.00
2018-05-26T01:51:35.026Z,22.17
2018-05-26T01:54:03.895Z,22.67
2018-05-26T01:56:32.749Z,22.33
2018-05-26T01:59:01.610Z,23.27
2018-05-26T02:01:30.478Z,22.93
2018-05-26T02:03:59.337Z,23.33
2018-05-26T02:06:28.200Z,22.43
2018-05-26T02:08:57.067Z,22.70
2018-05-26T02:11:25.944Z,22.70
2018-05-26T02:13:54.810Z,22.07
2018-05-26T02:16:23.677Z,20.90
2018-05-26T02:18:52.542Z,22.60
2018-05-26T02:21:21.419Z,20.37
2018-05-26T02:23:50.294Z,20.60
2018-05-26T02:26:19.163Z,19.57
2018-05-26T02:28:48.330Z,20.23
2018-05-26T02:31:17.542Z,20.20
2018-05-26T02:33:46.416Z,19.07
2018-05-26T02:36:15.285Z,18.50
2018-05-26T02:38:45.256Z,18.77
2018-05-26T02:41:14.140Z,18.83
2018-05-26T02:43:43.007Z,19.57
2018-05-26T02:46:11.894Z,18.57
2018-05-26T02:48:40.755Z,18.93
2018-05-26T02:51:09.620Z,20.20
2018-05-26T02:53:38.897Z,18.60
2018-05-26T02:56:07.767Z,17.87
2018-05-26T02:58:36.627Z,19.23
2018-05-26T03:01:05.487Z,17.93
2018-05-26T03:03:34.375Z,18.87
2018-05-26T03:06:09.004Z,17.93
2018-05-26T03:08:44.290Z,17.60
2018-05-26T03:11:19.256Z,17.20
2018-05-26T03:13:53.770Z,17.60
2018-05-26T03:16:28.300Z,17.10
2018-05-26T03:18:57.180Z,17.03
2018-05-26T03:21:26.046Z,15.73
2018-05-26T03:23:54.925Z,15.50
2018-05-26T03:26:23.814Z,16.10
2018-05-26T03:28:52.673Z,14.97
2018-05-26T03:31:21.578Z,16.00
2018-05-26T03:33:51.108Z,15.73
2018-05-26T03:36:20.002Z,15.00
2018-05-26T03:38:48.870Z,15.40
2018-05-26T03:41:17.767Z,14.70
2018-05-26T03:43:46.639Z,14.93
2018-05-26T03:46:15.531Z,14.77
2018-05-26T03:48:44.403Z,14.20
2018-05-26T03:51:13.282Z,14.73
2018-05-26T03:53:42.146Z,15.10
2018-05-26T03:56:16.955Z,14.37
2018-05-26T03:58:52.925Z,13.77
2018-05-26T04:01:21.811Z,14.83
2018-05-26T04:03:50.671Z,14.13
2018-05-26T04:06:19.559Z,13.77
2018-05-26T04:08:48.862Z,13.83
2018-05-26T04:11:17.728Z,14.47
2018-05-26T04:13:46.618Z,13.33
2018-05-26T04:16:15.487Z,13.30
2018-05-26T04:18:44.368Z,13.97
2018-05-26T04:21:13.239Z,13.97
2018-05-26T04:23:42.103Z,13.43
2018-05-26T04:26:10.976Z,14.07
2018-05-26T04:28:39.848Z,13.50
2018-05-26T04:31:08.706Z,13.63
2018-05-26T04:33:37.584Z,12.67
2018-05-26T04:36:06.456Z,13.77
2018-05-26T04:38:36.621Z,13.67
2018-05-26T04:41:05.491Z,12.93
2018-05-26T04:43:34.362Z,13.13
2018-05-26T04:46:03.230Z,13.03
2018-05-26T04:48:32.099Z,12.23
2018-05-26T04:51:00.964Z,13.33
2018-05-26T04:53:29.842Z,13.53
2018-05-26T04:55:58.702Z,13.20
2018-05-26T04:58:27.567Z,13.43
2018-05-26T05:00:56.434Z,12.87
2018-05-26T05:03:25.311Z,12.40
2018-05-26T05:05:54.509Z,13.43
2018-05-26T05:08:23.629Z,12.53
2018-05-26T05:10:52.494Z,12.10
2018-05-26T05:13:21.354Z,12.43
2018-05-26T05:15:50.491Z,12.47
2018-05-26T05:18:19.355Z,12.17
2018-05-26T05:20:48.220Z,12.53
2018-05-26T05:23:17.092Z,11.87
2018-05-26T05:25:45.949Z,12.63
2018-05-26T05:28:14.814Z,13.03
2018-05-26T05:30:43.678Z,12.20
2018-05-26T05:33:12.543Z,12.27
2018-05-26T05:35:41.406Z,11.90
2018-05-26T05:38:10.282Z,11.77
2018-05-26T05:40:39.152Z,11.67
2018-05-26T05:43:08.015Z,11.40
2018-05-26T05:45:36.878Z,12.00
2018-05-26T05:48:05.743Z,11.57
2018-05-26T05:50:34.615Z,11.40
2018-05-26T05:53:03.481Z,11.90
2018-05-26T05:55:32.343Z,11.13
2018-05-26T05:58:01.229Z,10.80
2018-05-26T06:00:30.091Z,11.50
2018-05-26T06:02:58.966Z,10.40
2018-05-26T06:05:27.827Z,10.83
2018-05-26T06:07:56.703Z,9.67
2018-05-26T06:10:25.584Z,10.13
2018-05-26T06:12:54.481Z,10.23
2018-05-26T06:15:23.399Z,9.83
2018-05-26T06:17:52.263Z,10.00
2018-05-26T06:20:21.126Z,8.57
2018-05-26T06:22:50.010Z,10.43
2018-05-26T06:25:18.876Z,9.18
2018-05-26T06:27:47.765Z,9.63
2018-05-26T06:30:16.993Z,9.90
2018-05-26T06:32:46.207Z,9.65
2018-05-26T06:35:15.062Z,9.27
2018-05-26T06:37:43.959Z,9.07
2018-05-26T06:40:12.818Z,9.48
2018-05-26T06:42:41.689Z,9.05
2018-05-26T06:45:10.572Z,10.15
2018-05-26T06:47:39.444Z,10.00
2018-05-26T06:50:08.303Z,8.85
2018-05-26T06:52:37.163Z,10.43
2018-05-26T06:55:06.372Z,10.27
2018-05-26T06:57:35.255Z,10.23
2018-05-26T07:00:04.122Z,10.63
2018-05-26T07:02:32.983Z,10.18
2018-05-26T07:05:01.847Z,10.93
2018-05-26T07:07:30.718Z,10.75
2018-05-26T07:09:59.591Z,10.88
2018-05-26T07:12:28.470Z,11.80
2018-05-26T07:14:57.378Z,11.82
2018-05-26T07:17:26.252Z,12.15
2018-05-26T07:19:55.115Z,11.27
2018-05-26T07:22:24.642Z,11.75
2018-05-26T07:24:54.417Z,11.43
2018-05-26T07:27:23.278Z,12.25
2018-05-26T07:29:52.201Z,11.18
2018-05-26T07:32:21.358Z,11.27
2018-05-26T07:34:50.223Z,12.23
2018-05-26T07:37:19.088Z,12.02
2018-05-26T07:39:47.950Z,11.85
2018-05-26T07:42:17.625Z,11.80
2018-05-26T07:44:46.519Z,13.48
2018-05-26T07:47:16.088Z,10.68
2018-05-26T07:49:45.671Z,10.60
2018-05-26T07:52:14.553Z,9.35
2018-05-26T07:54:44.405Z,9.23
2018-05-26T07:57:13.322Z,10.55
2018-05-26T07:59:42.224Z,11.27
2018-05-26T08:02:11.096Z,11.68
2018-05-26T08:04:39.994Z,12.82
2018-05-26T08:07:08.858Z,14.35
2018-05-26T08:09:38.374Z,12.93
2018-05-26T08:12:08.374Z,12.43
2018-05-26T08:14:38.099Z,11.93
2018-05-26T08:17:07.014Z,12.48
2018-05-26T08:19:36.364Z,10.45
2018-05-26T08:22:05.228Z,10.38
2018-05-26T08:24:34.098Z,10.32
2018-05-26T08:27:02.968Z,9.75
2018-05-26T08:29:31.830Z,9.63
2018-05-26T08:32:01.402Z,9.27
2018-05-26T08:34:30.839Z,9.38
2018-05-26T08:37:00.731Z,9.73
2018-05-26T08:39:30.260Z,8.77
2018-05-26T08:41:59.135Z,9.52
2018-05-26T08:44:29.056Z,10.50
2018-05-26T08:46:58.227Z,9.50
2018-05-26T08:49:27.119Z,9.45
2018-05-26T08:51:55.982Z,10.35
2018-05-26T08:54:24.862Z,9.48
2018-05-26T08:56:53.731Z,8.80
2018-05-26T08:59:22.607Z,8.27
2018-05-26T09:01:51.471Z,8.60
2018-05-26T09:04:20.591Z,8.32
2018-05-26T09:06:49.450Z,9.85
2018-05-26T09:09:18.328Z,8.07
2018-05-26T09:11:47.199Z,9.67
2018-05-26T09:14:16.095Z,8.37
2018-05-26T09:16:44.964Z,8.27
2018-05-26T09:19:13.835Z,8.20
2018-05-26T09:21:42.700Z,8.50
2018-05-26T09:24:11.559Z,9.07
2018-05-26T09:26:40.691Z,8.17
2018-05-26T09:29:09.555Z,7.40
2018-05-26T09:31:39.314Z,8.17
2018-05-26T09:34:08.217Z,7.07
2018-05-26T09:36:37.078Z,6.87
2018-05-26T09:39:05.970Z,6.93
2018-05-26T09:41:34.902Z,6.60
2018-05-26T09:44:03.758Z,7.30
2018-05-26T09:46:32.621Z,6.60
2018-05-26T09:49:01.540Z,5.90
2018-05-26T09:51:30.404Z,7.20
2018-05-26T09:53:59.270Z,7.30
2018-05-26T09:56:28.170Z,7.10
2018-05-26T09:58:57.058Z,6.57
2018-05-26T10:01:25.914Z,6.63
2018-05-26T10:03:54.807Z,5.50
2018-05-26T10:06:23.670Z,5.57
2018-05-26T10:08:52.536Z,5.37
2018-05-26T10:11:21.400Z,5.50
2018-05-26T10:13:50.264Z,5.20
2018-05-26T10:16:19.127Z,5.07
2018-05-26T10:18:47.983Z,5.40
2018-05-26T10:21:16.844Z,5.03
2018-05-26T10:23:45.703Z,4.97
2018-05-26T10:26:14.594Z,4.50
2018-05-26T10:28:43.438Z,5.57
2018-05-26T10:31:12.291Z,5.13
2018-05-26T10:33:41.155Z,4.97
2018-05-26T10:36:10.018Z,4.40
2018-05-26T10:38:38.882Z,5.10
2018-05-26T10:41:07.743Z,4.87
2018-05-26T10:43:36.601Z,4.60
2018-05-26T10:46:11.134Z,4.50
2018-05-26T10:48:40.007Z,3.80
2018-05-26T10:51:08.865Z,4.20
2018-05-26T10:53:37.736Z,4.67
2018-05-26T10:56:06.942Z,4.37
2018-05-26T10:58:35.802Z,4.17
2018-05-26T11:01:04.664Z,4.17
2018-05-26T11:03:33.535Z,4.30
2018-05-26T11:06:02.766Z,3.80
2018-05-26T11:08:31.625Z,4.33
2018-05-26T11:11:00.509Z,4.23
2018-05-26T11:13:29.422Z,4.27
2018-05-26T11:15:58.269Z,4.17
2018-05-26T11:18:27.127Z,3.67
2018-05-26T11:20:56.009Z,3.97
2018-05-26T11:23:24.874Z,4.83
2018-05-26T11:25:53.761Z,4.57
2018-05-26T11:28:22.634Z,4.23
2018-05-26T11:30:51.546Z,4.60
2018-05-26T11:33:20.398Z,4.70
2018-05-26T11:35:49.307Z,4.67
2018-05-26T11:38:18.176Z,4.30
2018-05-26T11:40:47.045Z,4.70
2018-05-26T11:43:15.920Z,4.77
2018-05-26T11:45:44.784Z,4.60
2018-05-26T11:48:13.643Z,4.93
2018-05-26T11:50:42.499Z,5.03
2018-05-26T11:53:11.363Z,5.10
2018-05-26T11:55:40.355Z,4.73
2018-05-26T11:58:09.211Z,4.60
2018-05-26T12:00:38.299Z,4.93
2018-05-26T12:03:07.191Z,5.70
2018-05-26T12:05:36.710Z,5.23
2018-05-26T12:08:06.911Z,4.47
2018-05-26T12:10:36.762Z,5.00
2018-05-26T12:13:05.659Z,4.80
2018-05-26T12:15:34.526Z,4.63
2018-05-26T12:18:03.456Z,5.20
2018-05-26T12:20:33.381Z,4.87
2018-05-26T12:23:04.371Z,5.93
2018-05-26T12:25:33.517Z,5.33
2018-05-26T12:28:03.210Z,5.27
2018-05-26T12:30:34.112Z,5.20
2018-05-26T12:33:04.590Z,6.50
2018-05-26T12:35:33.530Z,5.63
2018-05-26T12:38:03.417Z,5.50
2018-05-26T12:40:33.215Z,5.50
2018-05-26T12:43:02.594Z,5.77
2018-05-26T12:45:32.158Z,5.87
2018-05-26T12:48:01.663Z,5.23
2018-05-26T12:50:31.669Z,5.73
2018-05-26T12:53:01.479Z,5.30
2018-05-26T12:55:31.622Z,5.63
2018-05-26T12:58:01.410Z,6.30
2018-05-26T13:00:31.834Z,5.27
2018-05-26T13:03:00.744Z,5.23
2018-05-26T13:05:30.397Z,5.77
2018-05-26T13:07:59.263Z,5.73
2018-05-26T13:10:28.163Z,5.37
2018-05-26T13:12:57.031Z,4.90
2018-05-26T13:15:25.894Z,5.93
2018-05-26T13:17:54.990Z,5.10
2018-05-26T13:20:24.337Z,4.97
2018-05-26T13:22:53.203Z,5.30
2018-05-26T13:25:22.882Z,4.90
2018-05-26T13:27:52.686Z,5.40
2018-05-26T13:30:21.600Z,5.10
2018-05-26T13:32:51.915Z,4.57
2018-05-26T13:35:22.203Z,5.43
2018-05-26T13:37:52.543Z,5.20
2018-05-26T13:40:22.162Z,5.03
2018-05-26T13:42:53.080Z,5.10
2018-05-26T13:45:22.949Z,4.80
2018-05-26T13:47:51.870Z,5.20
2018-05-26T13:50:20.806Z,4.93
2018-05-26T13:52:50.606Z,4.70
2018-05-26T13:55:19.498Z,4.90
2018-05-26T13:57:49.040Z,4.47
2018-05-26T14:00:19.051Z,5.13
2018-05-26T14:02:49.134Z,4.10
2018-05-26T14:05:18.359Z,4.07
2018-05-26T14:07:48.439Z,4.63
2018-05-26T14:10:17.898Z,4.47
2018-05-26T14:12:47.286Z,4.20
2018-05-26T14:15:16.146Z,4.13
2018-05-26T14:17:45.850Z,4.10
2018-05-26T14:20:14.719Z,4.20
2018-05-26T14:22:44.486Z,4.10
2018-05-26T14:25:13.383Z,4.07
2018-05-26T14:27:42.368Z,4.40
2018-05-26T14:30:11.263Z,4.30
2018-05-26T14:32:40.154Z,3.93
2018-05-26T14:35:09.019Z,3.80
2018-05-26T14:37:37.904Z,4.03
2018-05-26T14:40:07.411Z,4.53
2018-05-26T14:42:36.311Z,4.80
2018-05-26T14:45:05.439Z,4.13
2018-05-26T14:47:35.111Z,4.40
2018-05-26T14:50:04.695Z,4.40
2018-05-26T14:52:34.479Z,4.50
2018-05-26T14:55:03.339Z,4.23
2018-05-26T14:57:32.198Z,4.17
2018-05-26T15:00:01.774Z,4.47
2018-05-26T15:02:30.637Z,4.13
2018-05-26T15:04:59.917Z,4.33
2018-05-26T15:07:29.395Z,4.40
2018-05-26T15:09:59.620Z,4.00
2018-05-26T15:12:29.459Z,4.27
2018-05-26T15:14:58.657Z,4.30
2018-05-26T15:17:29.648Z,4.43
2018-05-26T15:19:59.386Z,4.50
2018-05-26T15:22:28.242Z,4.30
2018-05-26T15:24:57.182Z,4.87
2018-05-26T15:27:27.860Z,4.60
2018-05-26T15:29:57.798Z,4.40
2018-05-26T15:32:27.966Z,4.37
2018-05-26T15:34:56.862Z,4.43
2018-05-26T15:37:25.722Z,4.30
2018-05-26T15:39:56.250Z,4.60
2018-05-26T15:42:27.220Z,4.60
2018-05-26T15:44:56.513Z,4.47
2018-05-26T15:47:25.420Z,4.20
2018-05-26T15:49:55.719Z,4.57
2018-05-26T15:52:25.646Z,4.77
2018-05-26T15:54:55.139Z,4.07
2018-05-26T15:57:24.050Z,4.23
2018-05-26T15:59:52.943Z,4.40
2018-05-26T16:02:22.219Z,4.50
2018-05-26T16:04:51.114Z,4.30
2018-05-26T16:07:20.015Z,4.30
2018-05-26T16:09:48.883Z,4.40
2018-05-26T16:12:17.742Z,4.73
2018-05-26T16:14:47.377Z,4.37
2018-05-26T16:17:16.313Z,5.20
2018-05-26T16:19:46.612Z,4.70
2018-05-26T16:22:16.288Z,4.50
2018-05-26T16:24:45.272Z,4.70
2018-05-26T16:27:15.147Z,4.80
2018-05-26T16:29:44.632Z,4.70
2018-05-26T16:32:13.574Z,5.00
2018-05-26T16:34:44.298Z,4.70
2018-05-26T16:37:13.842Z,4.63
2018-05-26T16:39:44.662Z,5.10
2018-05-26T16:42:14.120Z,5.27
2018-05-26T16:44:44.722Z,5.30
2018-05-26T16:47:14.342Z,4.73
2018-05-26T16:49:43.950Z,4.43
2018-05-26T16:52:13.350Z,5.10
2018-05-26T16:54:42.231Z,5.00
2018-05-26T16:57:11.195Z,4.73
2018-05-26T16:59:40.706Z,4.77
2018-05-26T17:02:10.195Z,4.87
2018-05-26T17:04:40.210Z,4.83
2018-05-26T17:07:10.017Z,4.50
2018-05-26T17:09:38.976Z,4.87
2018-05-26T17:12:07.830Z,5.13
2018-05-26T17:14:37.622Z,5.10
2018-05-26T17:17:07.139Z,5.03
2018-05-26T17:19:36.675Z,5.30
2018-05-26T17:22:05.538Z,4.30
2018-05-26T17:24:35.209Z,4.70
2018-05-26T17:27:04.982Z,4.83
2018-05-26T17:29:34.592Z,4.73
2018-05-26T17:32:03.482Z,4.70
2018-05-26T17:34:33.161Z,4.53
2018-05-26T17:37:02.776Z,5.20
2018-05-26T17:39:32.430Z,4.70
2018-05-26T17:42:02.827Z,5.43
2018-05-26T17:44:32.345Z,5.03
2018-05-26T17:47:01.246Z,4.57
2018-05-26T17:49:30.167Z,5.00
2018-05-26T17:51:59.079Z,4.70
2018-05-26T17:54:27.992Z,5.13
2018-05-26T17:56:57.398Z,4.57
2018-05-26T17:59:28.235Z,4.43
2018-05-26T18:01:57.527Z,5.00
2018-05-26T18:04:27.078Z,5.20
2018-05-26T18:06:56.186Z,5.20
2018-05-26T18:09:25.098Z,4.73
2018-05-26T18:11:55.862Z,4.80
2018-05-26T18:14:25.262Z,4.77
2018-05-26T18:16:54.177Z,4.80
2018-05-26T18:19:23.070Z,5.57
2018-05-26T18:21:52.770Z,4.83
2018-05-26T18:24:21.671Z,4.90
2018-05-26T18:26:52.072Z,4.73
2018-05-26T18:29:21.595Z,5.10
2018-05-26T18:31:51.831Z,4.83
2018-05-26T18:34:21.898Z,5.37
2018-05-26T18:36:51.838Z,5.20
2018-05-26T18:39:20.975Z,4.80
2018-05-26T18:41:50.431Z,5.77
2018-05-26T18:44:19.322Z,4.87
2018-05-26T18:46:48.182Z,4.87
2018-05-26T18:49:17.124Z,5.17
2018-05-26T18:51:45.992Z,5.27
2018-05-26T18:54:15.631Z,5.20
2018-05-26T18:56:44.902Z,5.67
2018-05-26T18:59:14.691Z,5.10
2018-05-26T19:01:44.695Z,4.70
2018-05-26T19:04:15.124Z,5.47
2018-05-26T19:06:45.974Z,5.33
2018-05-26T19:09:14.915Z,5.70
2018-05-26T19:11:44.806Z,5.43
2018-05-26T19:14:14.341Z,5.50
2018-05-26T19:16:43.203Z,4.87
2018-05-26T19:19:12.230Z,5.40
2018-05-26T19:21:41.088Z,5.30
2018-05-26T19:24:09.996Z,5.00
2018-05-26T19:26:39.809Z,5.13
2018-05-26T19:29:08.702Z,5.10
2018-05-26T19:31:37.598Z,5.80
2018-05-26T19:34:07.850Z,5.80
2018-05-26T19:36:37.731Z,5.77
2018-05-26T19:39:07.126Z,5.87
2018-05-26T19:41:37.608Z,6.00
2018-05-26T19:44:07.593Z,6.07
2018-05-26T19:46:36.519Z,5.93
2018-05-26T19:49:05.389Z,6.10
2018-05-26T19:51:34.325Z,6.60
2018-05-26T19:54:04.747Z,5.93
2018-05-26T19:56:33.614Z,6.93
2018-05-26T19:59:04.007Z,6.23
2018-05-26T20:01:32.868Z,6.40
2018-05-26T20:04:02.578Z,6.00
2018-05-26T20:06:32.386Z,6.23
2018-05-26T20:09:01.244Z,6.60
2018-05-26T20:11:30.171Z,6.00
2018-05-26T20:14:00.770Z,6.20
2018-05-26T20:16:30.292Z,6.17
2018-05-26T20:18:59.155Z,5.70
2018-05-26T20:21:29.170Z,6.17
2018-05-26T20:23:59.037Z,6.40
2018-05-26T20:26:28.174Z,6.07
2018-05-26T20:28:58.579Z,6.03
2018-05-26T20:31:27.998Z,5.67
2018-05-26T20:33:59.226Z,5.57
2018-05-26T20:36:28.770Z,6.13
2018-05-26T20:38:58.434Z,5.90
2018-05-26T20:41:27.337Z,5.20
2018-05-26T20:43:57.035Z,6.37
2018-05-26T20:46:27.269Z,6.17
2018-05-26T20:48:56.139Z,6.67
2018-05-26T20:51:26.518Z,6.17
2018-05-26T20:53:56.023Z,6.57
2018-05-26T20:56:26.792Z,6.43
2018-05-26T20:58:56.428Z,6.03
2018-05-26T21:01:25.283Z,6.43
2018-05-26T21:03:54.175Z,6.95
2018-05-26T21:06:23.104Z,6.07
2018-05-26T21:08:52.001Z,6.33
2018-05-26T21:11:20.854Z,6.00
2018-05-26T21:13:49.707Z,5.90
2018-05-26T21:16:20.065Z,6.27
2018-05-26T21:18:48.928Z,6.40
2018-05-26T21:21:17.820Z,6.60
2018-05-26T21:23:47.735Z,6.60
2018-05-26T21:26:16.716Z,6.27
2018-05-26T21:28:45.579Z,6.00
2018-05-26T21:31:14.521Z,5.83
2018-05-26T21:33:43.386Z,5.73
2018-05-26T21:36:12.255Z,6.07
2018-05-26T21:38:41.109Z,5.90
2018-05-26T21:41:09.995Z,6.07
2018-05-26T21:43:38.899Z,5.70
2018-05-26T21:46:07.755Z,6.33
2018-05-26T21:48:36.614Z,5.93
2018-05-26T21:51:05.480Z,6.23
2018-05-26T21:53:34.334Z,6.33
2018-05-26T21:56:03.195Z,5.57
2018-05-26T21:58:32.063Z,6.60
2018-05-26T22:01:00.925Z,5.50
2018-05-26T22:03:29.792Z,6.50
2018-05-26T22:05:58.698Z,7.00
2018-05-26T22:08:27.564Z,6.37
2018-05-26T22:10:56.424Z,5.87
2018-05-26T22:13:25.284Z,5.73
2018-05-26T22:15:54.159Z,6.17
2018-05-26T22:18:23.042Z,5.60
2018-05-26T22:20:51.906Z,5.13
2018-05-26T22:23:20.764Z,5.37
2018-05-26T22:25:49.627Z,5.57
2018-05-26T22:28:18.505Z,5.67
2018-05-26T22:30:47.374Z,5.37
2018-05-26T22:33:16.293Z,5.57
2018-05-26T22:35:45.158Z,5.67
2018-05-26T22:38:14.018Z,4.93
2018-05-26T22:40:42.890Z,5.67
2018-05-26T22:43:11.751Z,4.83
2018-05-26T22:45:40.620Z,4.80
2018-05-26T22:48:09.678Z,4.63
2018-05-26T22:50:38.650Z,4.70
2018-05-26T22:53:07.534Z,4.47
2018-05-26T22:55:36.542Z,4.67
2018-05-26T22:58:05.428Z,4.40
2018-05-26T23:00:34.283Z,4.60
2018-05-26T23:03:03.487Z,4.67
2018-05-26T23:05:32.347Z,4.40
2018-05-26T23:08:01.283Z,4.07
2018-05-26T23:10:30.147Z,4.40
2018-05-26T23:12:59.032Z,4.10
2018-05-26T23:15:27.890Z,4.53
2018-05-26T23:17:56.768Z,5.10
2018-05-26T23:20:25.655Z,4.37
2018-05-26T23:22:54.525Z,4.27
2018-05-26T23:25:23.401Z,4.47
2018-05-26T23:27:52.262Z,3.70
2018-05-26T23:30:21.122Z,3.97
2018-05-26T23:32:49.986Z,4.40
2018-05-26T23:35:18.851Z,4.13
2018-05-26T23:37:47.707Z,4.53
2018-05-26T23:40:16.567Z,4.03
2018-05-26T23:42:45.427Z,4.00
2018-05-26T23:45:14.283Z,4.63
2018-05-26T23:47:43.146Z,4.10
2018-05-26T23:50:12.003Z,4.43
2018-05-26T23:52:40.876Z,4.17
2018-05-26T23:55:09.734Z,4.60
2018-05-26T23:57:38.624Z,4.20
